createdAt,value
2023-07-24T00:01:46.408Z,2.08
2023-07-24T00:04:14.597Z,2.20
2023-07-24T00:06:42.706Z,1.80
2023-07-24T00:09:10.798Z,2.45
2023-07-24T00:11:38.829Z,1.80
2023-07-24T00:14:06.996Z,2.10
2023-07-24T00:16:36.549Z,2.03
2023-07-24T00:19:04.668Z,1.83
2023-07-24T00:21:32.750Z,2.20
2023-07-24T00:24:00.967Z,1.80
2023-07-24T00:26:29.497Z,2.20
2023-07-24T00:28:58.270Z,1.70
2023-07-24T00:31:26.449Z,1.83
2023-07-24T00:33:56.033Z,1.90
2023-07-24T00:36:24.178Z,1.88
2023-07-24T00:38:52.205Z,2.13
2023-07-24T00:41:20.414Z,2.10
2023-07-24T00:43:48.466Z,2.10
2023-07-24T00:46:16.891Z,1.98
2023-07-24T00:48:45.325Z,2.30
2023-07-24T00:51:14.899Z,2.40
2023-07-24T00:53:43.034Z,3.28
2023-07-24T00:56:12.307Z,2.97
2023-07-24T00:58:41.528Z,3.33
2023-07-24T01:01:10.224Z,3.47
2023-07-24T01:03:39.093Z,3.43
2023-07-24T01:06:07.648Z,3.30
2023-07-24T01:08:38.319Z,2.90
2023-07-24T01:11:14.238Z,3.70
2023-07-24T01:13:49.600Z,3.65
2023-07-24T01:16:23.624Z,3.20
2023-07-24T01:18:53.421Z,2.70
2023-07-24T01:21:39.334Z,2.65
2023-07-24T01:24:20.008Z,2.70
2023-07-24T01:26:49.906Z,2.80
2023-07-24T01:29:17.941Z,2.70
2023-07-24T01:31:46.025Z,3.10
2023-07-24T01:34:15.397Z,2.90
2023-07-24T01:36:43.611Z,2.60
2023-07-24T01:39:12.822Z,2.80
2023-07-24T01:41:42.380Z,2.95
2023-07-24T01:44:11.807Z,2.80
2023-07-24T01:46:40.146Z,2.67
2023-07-24T01:49:08.327Z,2.33
2023-07-24T01:51:36.482Z,2.30
2023-07-24T01:54:04.664Z,2.08
2023-07-24T01:56:33.144Z,2.30
2023-07-24T01:59:01.463Z,2.30
2023-07-24T02:01:30.955Z,2.35
2023-07-24T02:03:59.060Z,2.45
2023-07-24T02:06:27.421Z,2.50
2023-07-24T02:08:55.755Z,2.05
2023-07-24T02:11:23.993Z,2.40
2023-07-24T02:13:53.424Z,2.20
2023-07-24T02:16:21.554Z,2.25
2023-07-24T02:18:52.528Z,2.28
2023-07-24T02:21:20.590Z,1.88
2023-07-24T02:23:48.656Z,2.30
2023-07-24T02:26:16.792Z,2.00
2023-07-24T02:28:44.888Z,2.10
2023-07-24T02:31:13.071Z,2.10
2023-07-24T02:33:41.273Z,2.00
2023-07-24T02:36:10.794Z,2.30
2023-07-24T02:38:39.055Z,2.25
2023-07-24T02:41:09.259Z,2.30
2023-07-24T02:43:37.749Z,2.50
2023-07-24T02:46:05.935Z,2.17
2023-07-24T02:48:34.073Z,2.30
2023-07-24T02:51:02.263Z,2.55
2023-07-24T02:53:31.742Z,2.03
2023-07-24T02:55:59.835Z,2.10
2023-07-24T02:58:28.137Z,2.40
2023-07-24T03:00:58.019Z,2.37
2023-07-24T03:03:26.288Z,2.50
2023-07-24T03:05:54.913Z,2.20
2023-07-24T03:08:22.976Z,2.30
2023-07-24T03:10:52.460Z,2.30
2023-07-24T03:13:20.637Z,2.40
2023-07-24T03:15:55.017Z,2.40
2023-07-24T03:18:23.304Z,2.23
2023-07-24T03:20:52.337Z,2.47
2023-07-24T03:23:21.257Z,2.60
2023-07-24T03:25:49.598Z,2.40
2023-07-24T03:28:20.155Z,2.13
2023-07-24T03:30:48.337Z,2.50
2023-07-24T03:33:16.484Z,2.60
2023-07-24T03:35:44.566Z,2.50
2023-07-24T03:38:12.719Z,2.60
2023-07-24T03:40:40.795Z,2.67
2023-07-24T03:43:08.891Z,3.28
2023-07-24T03:45:38.637Z,2.90
2023-07-24T03:48:07.335Z,2.80
2023-07-24T03:50:35.484Z,2.60
2023-07-24T03:53:03.569Z,2.90
2023-07-24T03:55:31.768Z,2.80
2023-07-24T03:57:59.900Z,3.20
2023-07-24T04:00:28.132Z,2.80
2023-07-24T04:02:58.047Z,2.80
2023-07-24T04:05:27.324Z,2.70
2023-07-24T04:07:56.840Z,3.20
2023-07-24T04:10:24.929Z,3.15
2023-07-24T04:12:53.006Z,3.00
2023-07-24T04:15:21.228Z,3.63
2023-07-24T04:17:49.303Z,3.20
2023-07-24T04:20:18.940Z,3.30
2023-07-24T04:22:47.013Z,3.50
2023-07-24T04:25:15.073Z,3.47
2023-07-24T04:27:43.286Z,2.95
2023-07-24T04:30:12.064Z,3.90
2023-07-24T04:32:40.162Z,8.75
2023-07-24T04:35:09.397Z,5.03
2023-07-24T04:37:38.824Z,3.40
2023-07-24T04:40:08.125Z,3.53
2023-07-24T04:42:36.255Z,3.67
2023-07-24T04:45:04.580Z,3.50
2023-07-24T04:47:32.711Z,3.22
2023-07-24T04:50:00.785Z,3.00
2023-07-24T04:52:28.863Z,2.80
2023-07-24T04:54:58.275Z,3.33
2023-07-24T04:57:26.346Z,3.40
2023-07-24T04:59:54.518Z,2.90
2023-07-24T05:02:22.585Z,3.40
2023-07-24T05:04:51.187Z,2.80
2023-07-24T05:07:19.272Z,3.95
2023-07-24T05:09:47.452Z,3.40
2023-07-24T05:12:16.881Z,3.30
2023-07-24T05:14:44.936Z,3.50
2023-07-24T05:17:13.015Z,3.50
2023-07-24T05:19:41.222Z,3.20
2023-07-24T05:22:11.292Z,3.60
2023-07-24T05:24:40.133Z,3.38
2023-07-24T05:27:08.409Z,3.70
2023-07-24T05:29:37.866Z,5.47
2023-07-24T05:32:06.982Z,7.10
2023-07-24T05:34:35.239Z,5.00
2023-07-24T05:37:03.300Z,4.23
2023-07-24T05:39:32.205Z,4.80
2023-07-24T05:42:00.308Z,7.67
2023-07-24T05:44:28.389Z,4.35
2023-07-24T05:46:57.948Z,6.03
2023-07-24T05:49:27.319Z,3.88
2023-07-24T05:51:55.475Z,3.60
2023-07-24T05:54:23.763Z,3.50
2023-07-24T05:56:53.946Z,3.83
2023-07-24T05:59:22.013Z,3.92
2023-07-24T06:01:50.260Z,3.90
2023-07-24T06:04:19.792Z,3.60
2023-07-24T06:06:47.934Z,3.22
2023-07-24T06:09:16.056Z,3.95
2023-07-24T06:11:44.191Z,3.40
2023-07-24T06:14:12.453Z,3.10
2023-07-24T06:16:40.623Z,3.00
2023-07-24T06:19:08.921Z,3.40
2023-07-24T06:21:38.453Z,3.20
2023-07-24T06:24:06.877Z,3.40
2023-07-24T06:26:34.920Z,3.40
2023-07-24T06:29:03.005Z,3.20
2023-07-24T06:31:31.122Z,3.20
2023-07-24T06:33:59.272Z,3.10
2023-07-24T06:36:27.620Z,3.00
2023-07-24T06:38:57.483Z,3.30
2023-07-24T06:41:26.181Z,3.10
2023-07-24T06:43:54.373Z,3.50
2023-07-24T06:46:22.548Z,3.50
2023-07-24T06:48:50.617Z,3.20
2023-07-24T06:51:18.672Z,3.38
2023-07-24T06:53:46.734Z,2.80
2023-07-24T06:56:16.213Z,3.10
2023-07-24T06:58:44.376Z,3.10
2023-07-24T07:01:12.530Z,3.10
2023-07-24T07:03:40.711Z,2.97
2023-07-24T07:08:55.921Z,3.40
2023-07-24T07:11:25.529Z,3.60
2023-07-24T07:13:53.555Z,3.83
2023-07-24T07:16:21.688Z,3.80
2023-07-24T07:18:49.839Z,3.30
2023-07-24T07:21:18.060Z,3.70
2023-07-24T07:23:47.534Z,3.50
2023-07-24T07:26:15.831Z,3.47
2023-07-24T07:28:45.891Z,3.00
2023-07-24T07:31:14.453Z,3.40
2023-07-24T07:33:42.644Z,2.95
2023-07-24T07:36:10.705Z,3.13
2023-07-24T07:38:40.679Z,2.65
2023-07-24T07:41:09.361Z,2.85
2023-07-24T07:43:38.944Z,2.92
2023-07-24T07:46:08.376Z,2.80
2023-07-24T07:48:36.512Z,3.20
2023-07-24T07:51:04.800Z,3.00
2023-07-24T07:53:33.716Z,3.10
2023-07-24T07:56:01.886Z,2.70
2023-07-24T07:58:30.064Z,2.90
2023-07-24T08:00:58.217Z,3.10
2023-07-24T08:03:27.635Z,3.00
2023-07-24T08:05:59.173Z,2.70
2023-07-24T08:08:27.481Z,3.10
2023-07-24T08:10:55.596Z,2.60
2023-07-24T08:13:23.764Z,2.90
2023-07-24T08:15:52.160Z,2.85
2023-07-24T08:18:20.259Z,2.90
2023-07-24T08:20:49.691Z,3.10
2023-07-24T08:23:17.913Z,2.80
2023-07-24T08:25:53.778Z,2.60
2023-07-24T08:28:22.292Z,2.90
2023-07-24T08:30:59.063Z,2.90
2023-07-24T08:33:27.393Z,2.67
2023-07-24T08:36:07.296Z,3.03
2023-07-24T08:38:35.915Z,2.50
2023-07-24T08:41:08.649Z,2.70
2023-07-24T08:43:38.513Z,2.50
2023-07-24T08:46:07.848Z,2.55
2023-07-24T08:48:37.749Z,2.75
2023-07-24T08:51:10.160Z,2.78
2023-07-24T08:53:40.740Z,3.53
2023-07-24T08:56:10.474Z,4.07
2023-07-24T08:58:40.557Z,4.60
2023-07-24T09:01:09.571Z,4.10
2023-07-24T09:03:38.388Z,5.20
2023-07-24T09:06:08.974Z,4.80
2023-07-24T09:08:38.215Z,4.80
2023-07-24T09:11:07.528Z,4.50
2023-07-24T09:13:38.364Z,4.30
2023-07-24T09:16:07.219Z,4.00
2023-07-24T09:18:41.856Z,4.43
2023-07-24T09:21:13.138Z,4.65
2023-07-24T09:23:41.971Z,4.00
2023-07-24T09:26:10.216Z,3.45
2023-07-24T09:28:38.956Z,3.20
2023-07-24T09:31:07.098Z,3.58
2023-07-24T09:33:39.345Z,3.42
2023-07-24T09:36:09.503Z,4.43
2023-07-24T09:38:41.664Z,4.50
2023-07-24T09:41:10.218Z,4.10
2023-07-24T09:43:41.080Z,4.25
2023-07-24T09:46:11.332Z,4.43
2023-07-24T09:48:43.959Z,3.67
2023-07-24T09:51:31.062Z,3.05
2023-07-24T09:54:03.738Z,3.20
2023-07-24T09:56:47.572Z,3.30
2023-07-24T09:59:21.569Z,2.90
2023-07-24T10:01:51.067Z,2.67
2023-07-24T10:04:20.252Z,3.10
2023-07-24T10:06:49.290Z,2.50
2023-07-24T10:09:20.276Z,2.50
2023-07-24T10:11:48.548Z,2.78
2023-07-24T10:14:17.476Z,2.70
2023-07-24T10:16:47.184Z,2.83
2023-07-24T10:19:17.027Z,3.00
2023-07-24T10:21:48.521Z,2.60
2023-07-24T10:24:31.406Z,3.15
2023-07-24T10:27:07.864Z,3.50
2023-07-24T10:29:39.983Z,2.80
2023-07-24T10:32:19.308Z,3.50
2023-07-24T10:34:47.634Z,3.40
2023-07-24T10:37:15.654Z,3.20
2023-07-24T10:39:47.012Z,2.70
2023-07-24T10:42:15.744Z,3.22
2023-07-24T10:44:44.004Z,4.00
2023-07-24T10:47:12.580Z,2.87
2023-07-24T10:49:50.161Z,2.70
2023-07-24T10:52:18.220Z,3.10
2023-07-24T10:54:52.439Z,3.60
2023-07-24T10:57:27.851Z,3.00
2023-07-24T10:59:55.926Z,3.30
2023-07-24T11:02:24.209Z,3.30
2023-07-24T11:04:52.432Z,3.17
2023-07-24T11:07:20.939Z,2.88
2023-07-24T11:09:52.214Z,3.35
2023-07-24T11:12:20.283Z,3.33
2023-07-24T11:14:49.873Z,3.20
2023-07-24T11:17:18.144Z,3.38
2023-07-24T11:19:46.274Z,3.67
2023-07-24T11:22:14.953Z,3.73
2023-07-24T11:24:47.943Z,3.45
2023-07-24T11:27:19.876Z,3.20
2023-07-24T11:29:50.682Z,3.53
2023-07-24T11:32:22.010Z,3.10
2023-07-24T11:34:52.404Z,3.47
2023-07-24T11:37:20.586Z,3.28
2023-07-24T11:39:58.265Z,3.25
2023-07-24T11:42:30.625Z,3.50
2023-07-24T11:45:02.399Z,3.50
2023-07-24T11:47:30.949Z,3.70
2023-07-24T11:50:00.513Z,3.50
2023-07-24T11:52:28.578Z,3.80
2023-07-24T11:55:02.113Z,4.35
2023-07-24T11:57:31.898Z,4.22
2023-07-24T11:59:59.962Z,4.15
2023-07-24T12:02:29.597Z,4.70
2023-07-24T12:04:59.362Z,4.03
2023-07-24T12:07:33.645Z,4.18
2023-07-24T12:10:03.309Z,3.90
2023-07-24T12:12:47.363Z,3.90
2023-07-24T12:15:16.936Z,3.60
2023-07-24T12:17:45.131Z,3.83
2023-07-24T12:20:13.548Z,3.80
2023-07-24T12:22:41.629Z,3.80
2023-07-24T12:25:10.323Z,3.40
2023-07-24T12:27:40.753Z,1.55
2023-07-24T12:30:11.205Z,1.80
2023-07-24T12:32:39.493Z,1.30
2023-07-24T12:35:09.152Z,1.50
2023-07-24T12:37:37.485Z,1.33
2023-07-24T12:40:06.504Z,1.40
2023-07-24T12:42:34.579Z,1.40
2023-07-24T12:45:04.746Z,1.20
2023-07-24T12:47:34.440Z,1.00
2023-07-24T12:50:05.671Z,1.13
2023-07-24T12:52:35.725Z,1.10
2023-07-24T12:55:03.961Z,1.20
2023-07-24T12:57:32.154Z,1.30
2023-07-24T13:00:00.217Z,1.00
2023-07-24T13:02:28.341Z,1.15
2023-07-24T13:04:57.851Z,1.20
2023-07-24T13:07:26.074Z,1.30
2023-07-24T13:09:54.143Z,1.67
2023-07-24T13:12:22.629Z,1.50
2023-07-24T13:14:50.729Z,2.20
2023-07-24T13:17:19.016Z,1.50
2023-07-24T13:19:47.046Z,1.80
2023-07-24T13:22:16.628Z,1.90
2023-07-24T13:24:44.689Z,1.80
2023-07-24T13:27:12.918Z,2.50
2023-07-24T13:29:41.036Z,1.90
2023-07-24T13:32:10.039Z,1.70
2023-07-24T13:34:38.117Z,1.33
2023-07-24T13:37:06.735Z,1.40
2023-07-24T13:39:36.489Z,1.60
2023-07-24T13:42:04.646Z,1.58
2023-07-24T13:44:32.830Z,1.90
2023-07-24T13:47:00.989Z,1.50
2023-07-24T13:49:29.122Z,1.40
2023-07-24T13:51:57.204Z,1.70
2023-07-24T13:54:25.330Z,1.90
2023-07-24T13:56:54.853Z,2.20
2023-07-24T13:59:22.953Z,6.18
2023-07-24T14:01:51.029Z,14.45
2023-07-24T14:04:19.313Z,8.57
2023-07-24T14:06:47.563Z,12.88
2023-07-24T14:09:15.642Z,8.48
2023-07-24T14:11:43.707Z,13.40
2023-07-24T14:14:13.468Z,6.65
2023-07-24T14:16:43.127Z,5.53
2023-07-24T14:19:11.615Z,10.88
2023-07-24T14:21:39.702Z,4.80
2023-07-24T14:24:07.831Z,5.80
2023-07-24T14:26:37.834Z,8.73
2023-07-24T14:29:06.429Z,11.25
2023-07-24T14:31:36.057Z,14.00
2023-07-24T14:34:04.211Z,12.20
2023-07-24T14:36:35.028Z,7.20
2023-07-24T14:39:03.521Z,7.20
2023-07-24T14:41:32.096Z,7.07
2023-07-24T14:44:00.514Z,6.18
2023-07-24T14:46:28.986Z,8.20
2023-07-24T14:48:58.456Z,10.30
2023-07-24T14:51:27.189Z,12.13
2023-07-24T14:53:55.421Z,9.27
2023-07-24T14:56:23.667Z,5.13
2023-07-24T14:58:51.723Z,6.20
2023-07-24T15:01:19.922Z,6.30
2023-07-24T15:03:48.062Z,6.05
2023-07-24T15:06:17.523Z,5.80
2023-07-24T15:08:45.710Z,6.68
2023-07-24T15:11:14.480Z,6.22
2023-07-24T15:13:42.539Z,4.60
2023-07-24T15:16:11.030Z,4.70
2023-07-24T15:18:39.438Z,4.90
2023-07-24T15:21:07.492Z,4.40
2023-07-24T15:23:37.024Z,3.92
2023-07-24T15:26:05.157Z,3.72
2023-07-24T15:28:33.382Z,3.70
2023-07-24T15:31:01.732Z,3.22
2023-07-24T15:33:30.673Z,3.47
2023-07-24T15:35:58.801Z,3.65
2023-07-24T15:38:26.837Z,2.78
2023-07-24T15:40:56.291Z,6.43
2023-07-24T15:43:26.014Z,6.88
2023-07-24T15:45:54.130Z,5.03
2023-07-24T15:48:26.471Z,4.10
2023-07-24T15:50:55.192Z,4.03
2023-07-24T15:53:23.283Z,3.72
2023-07-24T15:55:51.405Z,4.18
2023-07-24T15:58:20.898Z,3.95
2023-07-24T16:00:49.144Z,3.53
2023-07-24T16:03:17.415Z,3.33
2023-07-24T16:05:45.537Z,3.10
2023-07-24T16:08:13.615Z,3.60
2023-07-24T16:10:42.056Z,3.85
2023-07-24T16:13:10.205Z,4.10
2023-07-24T16:18:10.708Z,3.58
2023-07-24T16:20:39.004Z,3.40
2023-07-24T16:23:09.080Z,2.80
2023-07-24T16:25:37.132Z,3.30
2023-07-24T16:28:05.564Z,2.78
2023-07-24T16:30:34.792Z,3.30
2023-07-24T16:33:04.654Z,3.55
2023-07-24T16:35:33.171Z,4.72
2023-07-24T16:38:03.546Z,8.02
2023-07-24T16:40:33.461Z,6.83
2023-07-24T16:43:01.561Z,4.10
2023-07-24T16:45:36.258Z,3.40
2023-07-24T16:48:07.190Z,3.78
2023-07-24T16:50:36.615Z,3.57
2023-07-24T16:53:05.172Z,4.07
2023-07-24T16:55:33.239Z,4.20
2023-07-24T16:58:01.302Z,3.60
2023-07-24T17:00:29.608Z,3.33
2023-07-24T17:02:57.865Z,6.45
2023-07-24T17:05:27.476Z,6.15
2023-07-24T17:07:55.576Z,11.70
2023-07-24T17:10:23.789Z,8.63
2023-07-24T17:12:52.082Z,8.05
2023-07-24T17:15:20.183Z,9.52
2023-07-24T17:17:48.268Z,6.60
2023-07-24T17:20:16.357Z,5.30
2023-07-24T17:22:45.798Z,11.63
2023-07-24T17:25:14.089Z,14.35
2023-07-24T17:27:42.128Z,21.65
2023-07-24T17:30:10.830Z,9.18
2023-07-24T17:32:38.928Z,7.90
2023-07-24T17:35:08.274Z,5.50
2023-07-24T17:37:38.736Z,4.80
2023-07-24T17:40:10.074Z,4.65
2023-07-24T17:42:38.585Z,4.68
2023-07-24T17:45:07.530Z,3.97
2023-07-24T17:47:36.061Z,3.65
2023-07-24T17:50:08.466Z,11.60
2023-07-24T17:52:37.117Z,7.93
2023-07-24T17:55:06.061Z,3.70
2023-07-24T17:57:35.534Z,2.92
2023-07-24T18:00:04.277Z,3.50
2023-07-24T18:02:33.569Z,3.50
2023-07-24T18:05:01.715Z,2.72
2023-07-24T18:07:29.807Z,4.90
2023-07-24T18:09:57.951Z,3.25
2023-07-24T18:12:26.465Z,3.33
2023-07-24T18:14:55.998Z,3.42
2023-07-24T18:17:24.423Z,3.10
2023-07-24T18:19:52.486Z,2.70
2023-07-24T18:22:22.103Z,2.80
2023-07-24T18:24:50.239Z,3.07
2023-07-24T18:27:18.453Z,5.63
2023-07-24T18:29:46.999Z,5.57
2023-07-24T18:32:16.468Z,6.60
2023-07-24T18:34:44.570Z,4.45
2023-07-24T18:37:13.058Z,4.23
2023-07-24T18:39:41.559Z,4.40
2023-07-24T18:42:09.626Z,5.47
2023-07-24T18:44:37.735Z,6.22
2023-07-24T18:47:06.166Z,5.30
2023-07-24T18:49:35.739Z,4.75
2023-07-24T18:52:03.911Z,3.92
2023-07-24T18:54:31.970Z,3.60
2023-07-24T18:57:00.140Z,4.40
2023-07-24T18:59:28.528Z,5.38
2023-07-24T19:01:56.615Z,4.20
2023-07-24T19:04:24.707Z,4.40
2023-07-24T19:06:54.183Z,3.83
2023-07-24T19:09:22.313Z,3.50
2023-07-24T19:11:51.072Z,4.28
2023-07-24T19:14:19.146Z,4.30
2023-07-24T19:16:47.225Z,5.28
2023-07-24T19:19:15.289Z,4.28
2023-07-24T19:21:43.379Z,3.75
2023-07-24T19:24:13.096Z,3.90
2023-07-24T19:26:41.175Z,5.50
2023-07-24T19:29:09.277Z,5.15
2023-07-24T19:31:37.427Z,6.93
2023-07-24T19:34:05.518Z,5.90
2023-07-24T19:36:33.679Z,5.75
2023-07-24T19:39:01.742Z,4.57
2023-07-24T19:41:31.252Z,4.60
2023-07-24T19:43:59.662Z,4.60
2023-07-24T19:46:27.742Z,4.20
2023-07-24T19:48:55.811Z,3.60
2023-07-24T19:51:23.912Z,6.07
2023-07-24T19:53:51.961Z,6.13
2023-07-24T19:56:20.091Z,4.70
2023-07-24T19:58:50.254Z,4.80
2023-07-24T20:01:18.368Z,3.65
2023-07-24T20:03:46.551Z,3.70
2023-07-24T20:06:14.666Z,3.10
2023-07-24T20:08:42.741Z,3.50
2023-07-24T20:11:10.797Z,3.78
2023-07-24T20:13:39.077Z,3.22
2023-07-24T20:16:08.698Z,3.10
2023-07-24T20:18:36.940Z,4.07
2023-07-24T20:21:05.196Z,3.90
2023-07-24T20:23:33.269Z,4.00
2023-07-24T20:26:01.356Z,4.20
2023-07-24T20:28:29.436Z,3.80
2023-07-24T20:30:57.570Z,4.40
2023-07-24T20:33:27.595Z,4.05
2023-07-24T20:35:55.796Z,4.20
2023-07-24T20:38:25.516Z,3.10
2023-07-24T20:40:54.171Z,3.50
2023-07-24T20:43:22.335Z,3.40
2023-07-24T20:45:51.711Z,3.67
2023-07-24T20:48:21.335Z,3.40
2023-07-24T20:50:51.235Z,3.30
2023-07-24T20:53:19.336Z,3.60
2023-07-24T20:55:47.458Z,2.80
2023-07-24T20:58:15.525Z,3.10
2023-07-24T21:00:43.647Z,2.55
2023-07-24T21:03:11.730Z,2.50
2023-07-24T21:05:40.017Z,2.58
2023-07-24T21:08:10.813Z,3.00
2023-07-24T21:10:38.863Z,2.47
2023-07-24T21:13:06.931Z,2.50
2023-07-24T21:15:35.240Z,2.75
2023-07-24T21:18:03.356Z,3.10
2023-07-24T21:20:31.472Z,2.53
2023-07-24T21:22:59.654Z,2.70
2023-07-24T21:25:29.343Z,2.30
2023-07-24T21:27:57.527Z,2.92
2023-07-24T21:30:25.635Z,2.50
2023-07-24T21:32:54.057Z,2.70
2023-07-24T21:35:22.425Z,2.90
2023-07-24T21:37:50.493Z,2.10
2023-07-24T21:40:18.725Z,1.90
2023-07-24T21:42:48.175Z,1.60
2023-07-24T21:45:16.395Z,1.80
2023-07-24T21:47:44.510Z,1.70
2023-07-24T21:50:12.598Z,1.30
2023-07-24T21:52:42.967Z,1.60
2023-07-24T21:55:11.327Z,1.30
2023-07-24T21:57:39.386Z,1.60
2023-07-24T22:00:10.003Z,1.70
2023-07-24T22:02:40.920Z,1.88
2023-07-24T22:05:09.272Z,1.50
2023-07-24T22:07:37.435Z,1.30
2023-07-24T22:10:06.045Z,1.55
2023-07-24T22:12:34.154Z,1.60
2023-07-24T22:15:02.227Z,1.80
2023-07-24T22:17:34.852Z,1.70
2023-07-24T22:20:05.422Z,1.80
2023-07-24T22:22:33.927Z,1.77
2023-07-24T22:25:02.171Z,1.40
2023-07-24T22:27:30.692Z,1.90
2023-07-24T22:29:58.969Z,1.45
2023-07-24T22:32:27.118Z,1.77
2023-07-24T22:34:56.727Z,1.30
2023-07-24T22:37:24.845Z,1.25
2023-07-24T22:39:53.910Z,1.60
2023-07-24T22:42:22.537Z,1.43
2023-07-24T22:44:50.573Z,1.42
2023-07-24T22:47:18.768Z,1.42
2023-07-24T22:49:46.854Z,1.50
2023-07-24T22:52:16.362Z,1.30
2023-07-24T22:54:44.437Z,1.80
2023-07-24T22:57:12.511Z,1.40
2023-07-24T22:59:41.492Z,1.50
2023-07-24T23:02:09.569Z,1.75
2023-07-24T23:04:37.664Z,1.60
2023-07-24T23:07:06.133Z,1.48
2023-07-24T23:09:53.298Z,1.50
2023-07-24T23:12:40.136Z,1.70
2023-07-24T23:15:08.712Z,1.40
2023-07-24T23:17:36.754Z,1.40
2023-07-24T23:20:05.574Z,1.15
2023-07-24T23:22:33.741Z,1.38
2023-07-24T23:25:03.141Z,1.60
2023-07-24T23:27:31.651Z,0.90
2023-07-24T23:29:59.734Z,1.30
2023-07-24T23:32:27.872Z,1.13
2023-07-24T23:34:56.016Z,1.50
2023-07-24T23:37:24.100Z,1.40
2023-07-24T23:39:52.265Z,1.27
2023-07-24T23:42:21.684Z,1.30
2023-07-24T23:44:49.981Z,1.10
2023-07-24T23:47:19.933Z,1.45
2023-07-24T23:49:48.339Z,1.30
2023-07-24T23:52:16.446Z,1.27
2023-07-24T23:54:44.489Z,1.20
2023-07-24T23:57:12.582Z,1.60
2023-07-24T23:59:42.438Z,1.52
